Time;durP1;ratioP1;P1;durP2;ratioP2;P2;SDS_P1;SDS_P2;PMS_P1;PMS_P2;Temp;Humidity;BMP_temperature;BMP_pressure;BME280_temperature;BME280_humidity;BME280_pressure;Samples;Min_cycle;Max_cycle;Signal;HPM_P1;HPM_P2
2023/04/13 00:00:31;;;;;;;6.30;3.83;;;;;;;17.86;39.95;99217.06;5113606;28;20047;-71
2023/04/13 00:03:00;;;;;;;6.53;3.78;;;;;;;17.85;39.84;99209.94;5113277;28;20056;-69
2023/04/13 00:05:33;;;;;;;6.75;3.72;;;;;;;17.82;40.12;99204.88;5113463;28;20082;-69
2023/04/13 00:08:02;;;;;;;6.22;3.95;;;;;;;17.81;39.88;99203.19;5113176;28;20052;-70
2023/04/13 00:10:35;;;;;;;7.85;4.03;;;;;;;17.77;39.78;99202.69;5113134;28;20047;-69
2023/04/13 00:13:04;;;;;;;6.47;3.83;;;;;;;17.77;40.09;99201.84;5113236;28;20043;-68
2023/04/13 00:15:35;;;;;;;7.25;3.97;;;;;;;17.74;39.98;99197.59;5113053;28;20108;-70
2023/04/13 00:18:05;;;;;;;7.45;4.32;;;;;;;17.73;39.95;99202.16;5113023;28;20052;-69
2023/04/13 00:20:34;;;;;;;7.07;4.15;;;;;;;17.72;40.12;99205.88;5112631;28;20048;-68
2023/04/13 00:23:02;;;;;;;6.93;4.00;;;;;;;17.72;40.03;99205.03;5112890;28;20051;-69
2023/04/13 00:25:32;;;;;;;6.88;3.53;;;;;;;17.70;40.00;99205.19;5113001;28;20048;-69
2023/04/13 00:28:05;;;;;;;7.22;4.35;;;;;;;17.67;40.07;99200.09;5112920;28;20048;-69
2023/04/13 00:30:33;;;;;;;7.60;4.32;;;;;;;17.67;40.03;99205.50;5112611;28;20048;-69
2023/04/13 00:33:02;;;;;;;7.93;4.28;;;;;;;17.65;40.12;99198.56;5112922;28;20043;-69
2023/04/13 00:35:31;;;;;;;7.30;4.18;;;;;;;17.63;40.16;99196.03;5112789;28;20065;-69
2023/04/13 00:37:59;;;;;;;6.38;3.80;;;;;;;17.64;40.13;99196.88;5112680;28;20130;-69
2023/04/13 00:40:28;;;;;;;6.28;3.95;;;;;;;17.61;40.13;99191.81;5094699;28;20105;-69
2023/04/13 00:43:00;;;;;;;6.35;4.10;;;;;;;17.60;39.86;99196.38;5112405;28;20139;-69
2023/04/13 00:45:29;;;;;;;8.23;3.95;;;;;;;17.60;39.90;99195.53;5112465;28;20048;-69
2023/04/13 00:47:58;;;;;;;5.45;3.83;;;;;;;17.59;40.08;99197.38;5112539;28;20051;-69
2023/04/13 00:50:27;;;;;;;7.38;4.32;;;;;;;17.57;39.98;99194.00;5112553;28;20047;-70
2023/04/13 00:52:57;;;;;;;7.28;4.00;;;;;;;17.55;40.09;99190.59;5112412;28;20084;-69
2023/04/13 00:55:26;;;;;;;6.38;3.92;;;;;;;17.53;40.12;99189.06;5112348;28;20409;-69
2023/04/13 00:57:54;;;;;;;7.32;4.00;;;;;;;17.53;40.25;99189.91;5112405;28;20112;-68
2023/04/13 01:00:25;;;;;;;6.53;3.97;;;;;;;17.51;40.05;99183.84;5120717;28;20053;-69
2023/04/13 01:02:53;;;;;;;7.20;4.90;;;;;;;17.49;39.92;99183.19;5112483;28;20066;-69
2023/04/13 01:05:24;;;;;;;8.35;4.47;;;;;;;17.49;40.10;99185.88;5112220;28;20051;-68
2023/04/13 01:08:02;;;;;;;7.93;4.35;;;;;;;17.46;40.16;99183.47;5112162;28;20044;-69
2023/04/13 01:10:35;;;;;;;7.72;4.50;;;;;;;17.46;40.01;99188.88;5112343;28;20092;-69
2023/04/13 01:13:11;;;;;;;6.68;3.88;;;;;;;17.44;40.20;99190.88;5112352;28;20040;-68
2023/04/13 01:15:46;;;;;;;7.57;4.60;;;;;;;17.43;40.36;99183.81;5112218;28;20461;-68
2023/04/13 01:18:16;;;;;;;7.00;4.72;;;;;;;17.42;40.24;99188.38;5111957;28;20043;-69
2023/04/13 01:20:46;;;;;;;7.28;4.28;;;;;;;17.40;40.32;99184.16;5112071;28;20059;-69
2023/04/13 01:23:28;;;;;;;7.60;4.65;;;;;;;17.39;40.21;99177.06;5112170;28;20051;-69
2023/04/13 01:25:59;;;;;;;6.57;4.32;;;;;;;17.38;40.19;99175.38;5112149;28;20077;-69
2023/04/13 01:28:29;;;;;;;7.43;4.60;;;;;;;17.34;40.13;99174.00;5111910;28;20039;-69
2023/04/13 01:31:00;;;;;;;7.72;4.85;;;;;;;17.36;40.21;99175.53;5111953;28;20071;-69
2023/04/13 01:33:32;;;;;;;8.05;4.25;;;;;;;17.36;39.96;99180.06;5116265;28;20059;-69
2023/04/13 01:36:01;;;;;;;8.82;4.90;;;;;;;17.34;39.97;99174.00;5116301;28;20053;-69
2023/04/13 01:38:30;;;;;;;8.00;5.00;;;;;;;17.31;40.25;99175.19;5116226;28;20069;-68
2023/04/13 01:40:58;;;;;;;7.95;4.68;;;;;;;17.33;40.12;99177.72;5116069;28;20079;-68
2023/04/13 01:43:30;;;;;;;7.35;4.88;;;;;;;17.31;40.31;99174.34;5115725;28;20138;-69
2023/04/13 01:46:03;;;;;;;8.00;5.13;;;;;;;17.30;40.35;99175.34;5115945;28;20050;-69
2023/04/13 01:48:37;;;;;;;8.73;4.80;;;;;;;17.29;40.32;99181.75;5116088;28;20047;-68
2023/04/13 01:51:08;;;;;;;8.35;4.90;;;;;;;17.29;40.17;99192.53;5116052;28;20088;-69
2023/04/13 01:53:42;;;;;;;7.60;4.53;;;;;;;17.25;40.55;99188.44;5115813;28;20051;-69
2023/04/13 01:56:11;;;;;;;8.27;4.57;;;;;;;17.26;40.17;99190.13;5115732;28;20048;-69
2023/04/13 01:58:42;;;;;;;8.30;4.60;;;;;;;17.25;40.20;99191.97;5115881;28;20046;-69
2023/04/13 02:01:11;;;;;;;7.70;4.60;;;;;;;17.24;40.40;99195.69;5115764;28;20454;-69
2023/04/13 02:03:41;;;;;;;8.25;4.63;;;;;;;17.23;40.45;99187.75;5115458;28;20135;-69
2023/04/13 02:06:10;;;;;;;8.55;4.53;;;;;;;17.21;40.18;99184.38;5115516;28;20044;-68
2023/04/13 02:08:39;;;;;;;6.57;4.20;;;;;;;17.21;40.18;99184.38;5115566;28;20098;-68
2023/04/13 02:11:07;;;;;;;7.15;4.28;;;;;;;17.21;40.38;99189.78;5115752;28;20050;-69
2023/04/13 02:13:36;;;;;;;8.18;4.80;;;;;;;17.19;40.38;99195.34;5115570;28;20048;-69
2023/04/13 02:16:07;;;;;;;6.63;4.05;;;;;;;17.15;40.44;99184.00;5115565;28;20046;-69
2023/04/13 02:18:36;;;;;;;7.90;4.70;;;;;;;17.16;40.38;99183.00;5115453;28;20048;-69
2023/04/13 02:21:08;;;;;;;7.88;4.32;;;;;;;17.16;40.39;99192.94;5115249;28;20052;-69
2023/04/13 02:23:37;;;;;;;7.68;4.55;;;;;;;17.14;40.11;99190.41;5115375;28;20047;-69
2023/04/13 02:26:07;;;;;;;7.57;4.57;;;;;;;17.13;40.50;99188.72;5115098;28;20040;-69
2023/04/13 02:28:35;;;;;;;6.30;3.85;;;;;;;17.13;40.38;99193.25;5114962;28;20056;-69
2023/04/13 02:31:04;;;;;;;7.80;4.22;;;;;;;17.11;40.32;99190.72;5113931;28;20113;-69
2023/04/13 02:33:35;;;;;;;6.43;3.97;;;;;;;17.11;40.27;99196.13;5121656;28;20043;-68
2023/04/13 02:36:04;;;;;;;7.10;4.10;;;;;;;17.10;40.49;99196.28;5114114;28;20047;-68
2023/04/13 02:38:32;;;;;;;6.65;4.28;;;;;;;17.10;40.35;99193.59;5113953;28;20447;-68
2023/04/13 02:41:01;;;;;;;6.53;4.20;;;;;;;17.07;40.37;99188.50;5113837;28;20042;-68
2023/04/13 02:43:29;;;;;;;6.32;4.07;;;;;;;17.06;40.19;99182.28;5105111;28;20047;-68
2023/04/13 02:45:58;;;;;;;6.53;4.30;;;;;;;17.04;40.40;99184.28;5093351;28;20058;-67
2023/04/13 02:48:29;;;;;;;7.40;4.28;;;;;;;17.06;40.46;99193.06;5100417;28;20166;-68
2023/04/13 02:50:59;;;;;;;7.13;3.90;;;;;;;17.05;40.40;99180.59;5113712;28;20130;-69
2023/04/13 02:53:27;;;;;;;7.05;4.22;;;;;;;17.04;40.33;99189.69;5095717;28;20508;-68
2023/04/13 02:55:56;;;;;;;6.53;4.00;;;;;;;17.03;40.27;99185.28;5093155;28;20552;-69
2023/04/13 02:58:24;;;;;;;6.65;3.90;;;;;;;17.03;40.19;99185.28;5093061;28;20083;-68
2023/04/13 03:00:52;;;;;;;6.55;3.90;;;;;;;17.02;40.32;99196.22;5092758;28;20048;-69
2023/04/13 03:03:21;;;;;;;6.97;3.72;;;;;;;17.01;40.35;99183.78;5106743;28;20100;-69
2023/04/13 03:05:49;;;;;;;7.20;4.28;;;;;;;17.00;40.24;99187.47;5113232;28;20048;-69
2023/04/13 03:08:19;;;;;;;5.85;3.65;;;;;;;16.97;40.41;99177.84;5113547;28;20044;-70
2023/04/13 03:10:47;;;;;;;6.70;4.03;;;;;;;16.98;40.39;99187.59;5113240;28;20078;-69
2023/04/13 03:13:15;;;;;;;6.43;3.92;;;;;;;16.96;40.31;99180.69;5113087;28;20048;-69
2023/04/13 03:15:44;;;;;;;5.93;3.85;;;;;;;16.96;40.30;99181.53;5097368;28;20051;-70
2023/04/13 03:18:13;;;;;;;7.07;3.88;;;;;;;16.96;40.26;99181.53;5092928;28;20409;-69
2023/04/13 03:20:42;;;;;;;7.20;4.18;;;;;;;16.96;40.31;99180.69;5092281;28;20073;-69
2023/04/13 03:23:10;;;;;;;6.35;3.83;;;;;;;16.93;40.27;99176.47;5092694;28;20416;-69
2023/04/13 03:25:40;;;;;;;8.18;3.97;;;;;;;16.93;40.49;99176.47;5092573;28;20176;-69
2023/04/13 03:28:08;;;;;;;5.60;3.50;;;;;;;16.92;40.31;99182.88;5092532;28;20054;-69
2023/04/13 03:30:50;;;;;;;6.05;3.42;;;;;;;16.91;40.45;99178.50;5089419;27;20393;-69
2023/04/13 03:33:18;;;;;;;7.78;4.18;;;;;;;16.91;40.28;99167.72;5089405;28;20143;-68
2023/04/13 03:35:47;;;;;;;6.45;3.90;;;;;;;16.90;40.57;99175.97;5089225;28;20048;-68
2023/04/13 03:38:15;;;;;;;5.55;3.50;;;;;;;16.89;40.39;99169.72;5089106;28;20131;-69
2023/04/13 03:40:43;;;;;;;6.20;3.50;;;;;;;16.87;40.35;99163.63;5089005;28;20045;-68
2023/04/13 03:43:11;;;;;;;5.57;3.45;;;;;;;16.88;40.28;99168.00;5088986;28;20520;-68
2023/04/13 03:45:39;;;;;;;6.57;3.63;;;;;;;16.87;40.31;99166.31;5089063;28;20055;-69
2023/04/13 03:48:09;;;;;;;6.10;3.55;;;;;;;16.85;40.47;99173.72;5089173;28;20078;-68
2023/04/13 03:50:37;;;;;;;5.47;3.47;;;;;;;16.84;40.28;99172.03;5088974;28;20048;-69
2023/04/13 03:53:06;;;;;;;6.38;3.58;;;;;;;16.85;40.60;99173.72;5093012;28;20154;-68
2023/04/13 03:55:34;;;;;;;5.15;3.50;;;;;;;16.83;40.37;99176.59;5091313;28;20048;-68
2023/04/13 03:58:02;;;;;;;5.50;3.42;;;;;;;16.84;40.52;99182.81;5088950;28;20139;-68
2023/04/13 04:00:30;;;;;;;5.75;3.40;;;;;;;16.82;40.48;99174.91;5089037;28;20076;-68
2023/04/13 04:02:58;;;;;;;5.38;3.10;;;;;;;16.82;40.50;99176.75;5088646;28;20063;-70
2023/04/13 04:05:28;;;;;;;5.93;3.40;;;;;;;16.80;40.37;99173.38;5088521;28;20197;-68
2023/04/13 04:07:56;;;;;;;5.63;3.42;;;;;;;16.81;40.43;99175.91;5088537;28;20074;-69
2023/04/13 04:10:26;;;;;;;5.40;3.03;;;;;;;16.81;40.44;99177.75;5088586;28;20056;-69
2023/04/13 04:12:55;;;;;;;6.13;3.53;;;;;;;16.78;40.39;99180.75;5088521;28;20067;-69
2023/04/13 04:15:23;;;;;;;5.28;3.05;;;;;;;16.78;40.40;99184.28;5088331;28;20080;-69
2023/04/13 04:17:51;;;;;;;5.05;3.13;;;;;;;16.78;40.31;99186.13;5088408;28;20143;-68
2023/04/13 04:20:20;;;;;;;5.47;3.30;;;;;;;16.78;40.38;99178.03;5088272;28;20044;-69
2023/04/13 04:22:52;;;;;;;5.57;3.28;;;;;;;16.76;40.31;99180.91;5088420;28;20044;-69
2023/04/13 04:25:21;;;;;;;5.22;3.08;;;;;;;16.73;40.41;99183.06;5088364;28;20048;-69
2023/04/13 04:27:51;;;;;;;5.43;3.28;;;;;;;16.76;40.34;99183.59;5088061;28;20044;-69
2023/04/13 04:30:20;;;;;;;5.63;3.60;;;;;;;16.74;40.26;99193.69;5087944;28;20088;-68
2023/04/13 04:32:51;;;;;;;6.25;3.15;;;;;;;16.75;40.49;99183.75;5067668;28;20084;-68
2023/04/13 04:35:20;;;;;;;6.05;3.40;;;;;;;16.73;40.36;99192.00;5067897;28;20074;-68
2023/04/13 04:37:50;;;;;;;5.82;3.60;;;;;;;16.73;40.40;99193.84;5067780;28;20045;-68
2023/04/13 04:40:19;;;;;;;5.35;3.03;;;;;;;16.73;40.47;99191.16;5064732;28;20049;-69
2023/04/13 04:42:48;;;;;;;6.25;3.50;;;;;;;16.72;40.48;99195.69;5054329;28;20111;-69
2023/04/13 04:45:16;;;;;;;5.07;2.92;;;;;;;16.71;40.49;99193.16;5054177;28;20446;-68
2023/04/13 04:47:44;;;;;;;5.72;3.40;;;;;;;16.71;40.41;99193.16;5054161;28;20552;-69
2023/04/13 04:50:13;;;;;;;5.55;2.95;;;;;;;16.71;40.45;99193.16;5054284;28;20442;-69
2023/04/13 04:52:41;;;;;;;4.40;2.88;;;;;;;16.71;40.42;99195.84;5054325;28;20049;-69
2023/04/13 04:55:19;;;;;;;5.28;3.17;;;;;;;16.70;40.53;99196.88;5054123;28;20052;-68
2023/04/13 04:57:48;;;;;;;5.68;3.25;;;;;;;16.69;40.36;99198.69;5054083;28;20451;-68
2023/04/13 05:00:17;;;;;;;5.88;3.13;;;;;;;16.69;40.43;99193.28;5054319;28;20068;-69
2023/04/13 05:02:47;;;;;;;5.60;3.15;;;;;;;16.69;40.31;99195.16;5053947;28;20132;-69
2023/04/13 05:05:15;;;;;;;5.32;3.00;;;;;;;16.69;40.41;99197.84;5053896;28;20137;-68
2023/04/13 05:07:44;;;;;;;5.88;3.30;;;;;;;16.67;40.25;99186.34;5053756;28;20071;-68
2023/04/13 05:10:13;;;;;;;5.32;3.20;;;;;;;16.66;40.50;99190.91;5055952;28;20045;-67
2023/04/13 05:12:42;;;;;;;5.22;3.03;;;;;;;16.68;40.44;99193.44;5073620;28;20383;-67
2023/04/13 05:15:11;;;;;;;5.05;3.28;;;;;;;16.67;40.51;99191.75;5073630;28;20048;-68
2023/04/13 05:17:40;;;;;;;4.40;2.97;;;;;;;16.65;40.54;99183.81;5073428;28;20516;-68
2023/04/13 05:20:09;;;;;;;5.05;3.00;;;;;;;16.67;40.30;99189.03;5073567;28;20445;-68
2023/04/13 05:22:40;;;;;;;5.90;3.10;;;;;;;16.65;40.46;99177.59;5073472;28;20040;-67
2023/04/13 05:25:09;;;;;;;4.95;3.03;;;;;;;16.64;40.14;99171.38;5073226;28;20051;-67
2023/04/13 05:27:37;;;;;;;5.72;3.33;;;;;;;16.63;40.27;99177.75;5073306;28;20424;-68
2023/04/13 05:30:09;;;;;;;4.93;2.97;;;;;;;16.64;40.16;99175.91;5073098;28;20080;-68
2023/04/13 05:32:39;;;;;;;6.00;3.17;;;;;;;16.65;40.25;99193.75;5073308;28;20118;-68
2023/04/13 05:35:09;;;;;;;4.95;3.13;;;;;;;16.64;40.33;99189.38;5073691;28;20467;-70
2023/04/13 05:37:38;;;;;;;5.40;2.78;;;;;;;16.64;40.27;99194.75;5073051;28;20098;-69
2023/04/13 05:40:11;;;;;;;5.75;3.17;;;;;;;16.64;40.11;99186.69;5072543;28;20119;-70
2023/04/13 05:42:42;;;;;;;5.65;3.25;;;;;;;16.64;39.95;99194.75;5072217;28;20052;-69
2023/04/13 05:45:12;;;;;;;5.65;3.10;;;;;;;16.64;40.12;99195.59;5073107;28;20051;-69
2023/04/13 05:47:40;;;;;;;5.15;2.95;;;;;;;16.66;40.16;99195.44;5072239;28;20557;-68
2023/04/13 05:50:09;;;;;;;5.78;3.47;;;;;;;16.65;40.13;99189.22;5072285;28;20056;-69
2023/04/13 05:52:38;;;;;;;4.75;3.13;;;;;;;16.64;40.16;99192.06;5071639;28;20482;-70
2023/04/13 05:55:07;;;;;;;5.35;2.97;;;;;;;16.65;39.99;99189.22;5072790;28;20029;-68
2023/04/13 05:57:35;;;;;;;5.38;2.80;;;;;;;16.64;40.18;99183.97;5072516;28;20036;-69
2023/04/13 06:00:06;;;;;;;5.60;3.42;;;;;;;16.65;40.10;99185.66;5069782;28;20072;-70
2023/04/13 06:02:38;;;;;;;4.82;3.08;;;;;;;16.60;40.05;99187.00;5063508;28;20532;-70
2023/04/13 06:05:08;;;;;;;5.50;2.90;;;;;;;16.65;39.97;99199.13;5052885;28;20696;-69
2023/04/13 06:07:36;;;;;;;5.40;2.83;;;;;;;16.65;40.05;99196.44;5052925;28;20084;-69
2023/04/13 06:10:05;;;;;;;7.15;3.17;;;;;;;16.63;40.22;99196.59;5059086;28;20481;-69
2023/04/13 06:12:34;;;;;;;4.95;3.17;;;;;;;16.64;40.31;99198.28;5072683;28;20083;-69
2023/04/13 06:15:02;;;;;;;5.55;3.00;;;;;;;16.65;40.51;99199.97;5059645;28;20049;-68
2023/04/13 06:17:31;;;;;;;5.43;2.90;;;;;;;16.65;40.26;99193.75;5052407;28;20071;-68
2023/04/13 06:20:00;;;;;;;5.22;2.97;;;;;;;16.64;40.27;99197.44;5052729;28;20119;-71
2023/04/13 06:22:29;;;;;;;5.85;3.00;;;;;;;16.65;40.17;99204.53;5063747;28;20045;-66
2023/04/13 06:24:57;;;;;;;4.95;2.67;;;;;;;16.66;40.08;99200.81;5074520;28;20152;-66
2023/04/13 06:27:27;;;;;;;5.40;3.17;;;;;;;16.65;40.05;99199.13;5072455;28;20130;-68
2023/04/13 06:29:56;;;;;;;4.75;2.72;;;;;;;16.65;40.08;99199.13;5071892;28;20435;-68
2023/04/13 06:32:25;;;;;;;6.22;2.80;;;;;;;16.65;40.30;99199.97;5071888;28;20048;-67
2023/04/13 06:34:53;;;;;;;5.50;3.00;;;;;;;16.67;40.02;99197.13;5071685;28;20044;-67
2023/04/13 06:37:23;;;;;;;5.70;2.80;;;;;;;16.67;39.92;99197.97;5072301;28;20052;-68
2023/04/13 06:39:52;;;;;;;5.22;2.90;;;;;;;16.67;39.90;99205.19;5072119;28;20483;-68
2023/04/13 06:42:20;;;;;;;5.80;3.13;;;;;;;16.64;39.84;99203.66;5071938;28;20109;-68
2023/04/13 06:44:48;;;;;;;4.80;2.80;;;;;;;16.69;39.99;99208.59;5072026;28;20048;-68
2023/04/13 06:47:16;;;;;;;4.70;2.85;;;;;;;16.69;40.04;99206.75;5072055;28;20044;-68
2023/04/13 06:49:44;;;;;;;5.28;2.70;;;;;;;16.68;40.04;99204.19;5072065;28;20055;-68
2023/04/13 06:52:13;;;;;;;4.45;2.88;;;;;;;16.71;40.12;99209.31;5071837;28;20049;-68
2023/04/13 06:54:43;;;;;;;5.25;2.88;;;;;;;16.71;40.23;99210.16;5071815;28;20070;-68
2023/04/13 06:57:12;;;;;;;4.93;2.80;;;;;;;16.72;40.08;99216.41;5071534;28;20101;-68
2023/04/13 06:59:40;;;;;;;4.03;2.50;;;;;;;16.72;40.04;99214.53;5071641;28;20051;-69
2023/04/13 07:02:08;;;;;;;4.70;2.80;;;;;;;16.72;40.35;99219.94;5051729;28;20041;-69
2023/04/13 07:04:36;;;;;;;5.30;2.85;;;;;;;16.72;40.20;99217.25;5051452;28;20045;-69
2023/04/13 07:07:05;;;;;;;4.47;2.67;;;;;;;16.71;40.19;99214.72;5051579;28;20696;-69
2023/04/13 07:09:33;;;;;;;4.50;2.40;;;;;;;16.69;40.16;99214.00;5051309;28;20087;-69
2023/04/13 07:12:04;;;;;;;4.43;2.53;;;;;;;16.73;40.21;99228.84;5051448;28;20477;-69
2023/04/13 07:14:34;;;;;;;5.35;3.00;;;;;;;16.72;39.89;99217.25;5051699;28;20536;-69
2023/04/13 07:17:02;;;;;;;5.25;2.70;;;;;;;16.72;40.14;99227.16;5051528;28;20457;-68
2023/04/13 07:19:32;;;;;;;5.10;2.83;;;;;;;16.73;40.11;99223.47;5051413;28;20045;-68
2023/04/13 07:22:03;;;;;;;4.97;2.75;;;;;;;16.73;40.19;99221.63;5051438;28;20053;-68
2023/04/13 07:24:34;;;;;;;4.35;2.90;;;;;;;16.74;40.21;99222.47;5051576;28;20072;-68
2023/04/13 07:27:04;;;;;;;5.53;2.67;;;;;;;16.75;39.92;99221.47;5051522;28;20041;-68
2023/04/13 07:29:32;;;;;;;4.82;2.67;;;;;;;16.75;40.23;99227.69;5051370;28;20053;-68
2023/04/13 07:32:01;;;;;;;5.35;2.92;;;;;;;16.76;40.08;99228.53;5051304;28;20473;-68
2023/04/13 07:34:30;;;;;;;4.30;2.63;;;;;;;16.75;40.08;99224.16;5051341;28;20049;-68
2023/04/13 07:36:58;;;;;;;4.05;2.50;;;;;;;16.78;39.87;99221.13;5051197;28;20073;-69
2023/04/13 07:39:27;;;;;;;4.60;2.70;;;;;;;16.78;40.09;99221.13;5051796;28;20053;-68
2023/04/13 07:41:55;;;;;;;4.43;2.72;;;;;;;16.79;40.18;99215.63;5051365;28;20102;-68
2023/04/13 07:44:25;;;;;;;6.22;3.15;;;;;;;16.80;39.87;99224.53;5051173;28;20076;-68
2023/04/13 07:46:55;;;;;;;4.65;2.72;;;;;;;16.80;40.00;99220.00;5051185;28;20053;-68
2023/04/13 07:49:23;;;;;;;4.97;2.80;;;;;;;16.81;40.30;99220.84;5051018;28;20045;-68
2023/04/13 07:51:53;;;;;;;5.28;2.80;;;;;;;16.82;40.16;99222.53;5051239;28;20049;-69
2023/04/13 07:54:21;;;;;;;6.03;3.30;;;;;;;16.82;40.27;99222.53;5050817;28;20053;-68
2023/04/13 07:56:49;;;;;;;5.55;2.75;;;;;;;16.82;40.25;99214.44;5051118;28;20107;-68
2023/04/13 07:59:17;;;;;;;5.20;2.90;;;;;;;16.83;40.11;99214.28;5051058;28;20509;-69
2023/04/13 08:01:47;;;;;;;4.38;2.80;;;;;;;16.84;40.30;99217.81;5050948;28;20457;-68
2023/04/13 08:04:15;;;;;;;5.75;2.78;;;;;;;16.85;40.16;99217.66;5051016;28;20045;-69
2023/04/13 08:06:43;;;;;;;5.55;2.80;;;;;;;16.84;40.10;99221.38;5050867;28;20060;-69
2023/04/13 08:09:12;;;;;;;4.47;2.55;;;;;;;16.87;40.29;99220.19;5051004;28;20052;-68
2023/04/13 08:11:42;;;;;;;4.28;2.50;;;;;;;16.86;40.29;99223.88;5050817;28;20110;-67
2023/04/13 08:14:10;;;;;;;5.78;2.50;;;;;;;16.90;40.26;99221.75;5050878;28;20085;-68
2023/04/13 08:16:38;;;;;;;5.13;2.60;;;;;;;16.84;40.17;99215.13;5053286;28;20418;-68
2023/04/13 08:19:08;;;;;;;4.78;2.70;;;;;;;16.89;40.39;99229.00;5054844;28;20055;-68
2023/04/13 08:21:37;;;;;;;5.47;2.60;;;;;;;16.91;40.22;99226.97;5054759;28;20410;-69
2023/04/13 08:24:06;;;;;;;4.90;2.80;;;;;;;16.93;40.24;99226.81;5054862;28;20055;-69
2023/04/13 08:26:34;;;;;;;4.38;2.33;;;;;;;16.92;40.08;99231.34;5054565;28;20041;-68
2023/04/13 08:29:02;;;;;;;4.97;2.70;;;;;;;16.94;39.87;99225.81;5054446;28;20110;-69
2023/04/13 08:31:31;;;;;;;5.53;2.72;;;;;;;16.93;40.02;99224.13;5054399;28;20132;-69
2023/04/13 08:33:59;;;;;;;5.95;2.60;;;;;;;16.96;39.85;99234.56;5054629;28;20110;-68
2023/04/13 08:36:29;;;;;;;7.03;2.90;;;;;;;16.97;39.74;99230.88;5054362;28;20049;-67
2023/04/13 08:38:57;;;;;;;4.25;2.55;;;;;;;16.96;39.71;99229.19;5054218;28;20532;-68
2023/04/13 08:41:27;;;;;;;5.63;2.70;;;;;;;16.97;39.66;99236.25;5054128;28;20067;-68
2023/04/13 08:43:56;;;;;;;4.90;2.58;;;;;;;16.98;39.47;99228.00;5054880;28;20044;-68
2023/04/13 08:46:24;;;;;;;4.82;2.40;;;;;;;16.99;39.45;99228.88;5054858;28;20461;-68
2023/04/13 08:48:54;;;;;;;6.05;2.75;;;;;;;16.97;39.47;99220.09;5054567;28;20062;-69
2023/04/13 08:51:23;;;;;;;5.25;2.58;;;;;;;17.00;39.44;99225.19;5054084;28;20136;-68
2023/04/13 08:53:54;;;;;;;4.32;2.30;;;;;;;17.01;39.62;99222.34;5054121;28;20049;-68
2023/04/13 08:56:23;;;;;;;4.60;2.58;;;;;;;17.02;39.42;99212.41;5054023;28;20049;-69
2023/04/13 08:59:14;;;;;;;5.25;2.50;;;;;;;17.01;39.35;99211.56;5054181;28;20052;-69
2023/04/13 09:01:44;;;;;;;4.32;2.40;;;;;;;17.03;39.61;99214.09;5054310;28;20147;-68
2023/04/13 09:04:17;;;;;;;3.80;2.28;;;;;;;17.04;39.36;99216.63;5054052;28;20414;-69
2023/04/13 09:06:49;;;;;;;4.13;2.45;;;;;;;17.01;39.51;99208.84;5053797;28;20068;-68
2023/04/13 09:09:19;;;;;;;4.13;2.13;;;;;;;17.06;39.60;99217.28;5053912;28;20374;-68
2023/04/13 09:11:47;;;;;;;5.03;2.65;;;;;;;17.08;39.68;99215.31;5053710;28;20394;-68
2023/04/13 09:14:20;;;;;;;4.53;2.55;;;;;;;17.08;39.71;99220.69;5053591;28;20049;-68
2023/04/13 09:16:49;;;;;;;4.20;2.30;;;;;;;17.08;39.52;99211.75;5053704;28;20045;-68
2023/04/13 09:19:29;;;;;;;3.80;2.20;;;;;;;17.11;39.49;99212.28;5053527;28;20065;-68
2023/04/13 09:21:57;;;;;;;4.47;2.42;;;;;;;17.11;39.61;99209.59;5053759;28;20045;-68
2023/04/13 09:24:38;;;;;;;5.30;2.33;;;;;;;17.14;39.32;99211.97;5053622;28;20080;-68
2023/04/13 09:27:06;;;;;;;7.10;2.28;;;;;;;17.15;39.52;99207.41;5053909;28;20095;-68
2023/04/13 09:29:34;;;;;;;4.20;2.30;;;;;;;17.16;39.54;99209.94;5053262;28;20449;-68
2023/04/13 09:32:06;;;;;;;4.50;2.40;;;;;;;17.20;39.52;99209.66;5053230;28;20129;-68
2023/04/13 09:34:34;;;;;;;5.75;2.50;;;;;;;17.22;39.63;99213.03;5053385;28;20053;-68
2023/04/13 09:37:12;;;;;;;5.05;2.40;;;;;;;17.24;39.51;99205.63;5053699;28;20103;-69
2023/04/13 09:39:42;;;;;;;4.55;2.50;;;;;;;17.24;39.76;99200.22;5053431;28;20049;-69
2023/04/13 09:42:10;;;;;;;4.10;2.10;;;;;;;17.27;39.82;99205.28;5053239;28;20048;-68
2023/04/13 09:44:39;;;;;;;3.88;2.08;;;;;;;17.29;39.55;99197.91;5053071;28;20402;-68
2023/04/13 09:47:07;;;;;;;3.58;2.03;;;;;;;17.30;39.68;99196.91;5053340;28;20053;-68
2023/04/13 09:49:39;;;;;;;4.22;2.40;;;;;;;17.30;39.57;99196.91;5053054;28;20446;-68
2023/04/13 09:52:18;;;;;;;3.78;2.03;;;;;;;17.32;39.75;99201.13;5052683;28;20056;-68
2023/04/13 09:54:51;;;;;;;3.40;2.00;;;;;;;17.33;39.78;99199.25;5052474;28;20071;-68
2023/04/13 09:57:26;;;;;;;3.30;2.00;;;;;;;17.34;39.49;99190.16;5052905;28;20076;-68
2023/04/13 09:59:55;;;;;;;4.00;2.10;;;;;;;17.37;39.72;99196.09;5052773;28;20041;-68
2023/04/13 10:02:24;;;;;;;3.92;1.90;;;;;;;17.39;39.63;99190.56;5052812;28;20414;-68
2023/04/13 10:04:53;;;;;;;2.95;1.77;;;;;;;17.41;39.74;99192.06;5052835;28;20470;-69
2023/04/13 10:07:25;;;;;;;3.88;1.95;;;;;;;17.43;39.72;99186.50;5052515;28;20049;-69
2023/04/13 10:09:55;;;;;;;4.43;2.10;;;;;;;17.43;39.79;99181.13;5052905;28;20063;-68
2023/04/13 10:12:26;;;;;;;3.63;2.00;;;;;;;17.45;39.83;99181.78;5052579;28;20053;-68
2023/04/13 10:15:12;;;;;;;3.70;1.95;;;;;;;17.47;39.79;99190.59;5052687;28;20143;-68
2023/04/13 10:17:52;;;;;;;4.88;2.10;;;;;;;17.48;39.69;99186.88;5052280;28;20514;-68
2023/04/13 10:20:22;;;;;;;4.70;2.00;;;;;;;17.47;39.88;99190.59;5052228;28;20044;-69
2023/04/13 10:22:51;;;;;;;3.83;1.90;;;;;;;17.48;39.68;99192.28;5052572;28;20049;-69
2023/04/13 10:25:20;;;;;;;3.50;1.80;;;;;;;17.50;39.72;99195.66;5052361;28;20369;-69
2023/04/13 10:28:01;;;;;;;3.33;1.98;;;;;;;17.50;39.72;99184.88;5052195;28;20132;-67
2023/04/13 10:30:29;;;;;;;3.92;1.90;;;;;;;17.51;39.73;99191.94;5051651;28;20540;-69
2023/04/13 10:33:04;;;;;;;3.92;2.00;;;;;;;17.53;39.67;99189.91;5051988;28;20052;-68
2023/04/13 10:35:36;;;;;;;3.75;1.63;;;;;;;17.54;39.70;99190.75;5051940;28;20045;-69
2023/04/13 10:38:07;;;;;;;4.03;1.92;;;;;;;17.54;39.73;99185.38;5051677;28;20341;-68
2023/04/13 10:40:44;;;;;;;3.92;2.05;;;;;;;17.53;39.80;99178.28;5051661;28;20087;-68
2023/04/13 10:43:13;;;;;;;3.63;1.80;;;;;;;17.55;39.67;99181.66;5051863;28;20049;-68
2023/04/13 10:45:41;;;;;;;3.40;1.90;;;;;;;17.56;39.79;99184.19;5052340;28;20136;-68
2023/04/13 10:48:20;;;;;;;3.03;1.80;;;;;;;17.56;39.54;99180.66;5052013;28;20041;-68
2023/04/13 10:50:57;;;;;;;3.17;1.55;;;;;;;17.55;39.58;99177.13;5051748;28;20124;-69
2023/04/13 10:53:29;;;;;;;3.33;1.80;;;;;;;17.58;39.70;99186.75;5051540;28;20441;-68
2023/04/13 10:55:59;;;;;;;3.17;1.65;;;;;;;17.54;39.76;99164.66;5051749;28;20041;-69
2023/04/13 10:58:30;;;;;;;3.60;1.95;;;;;;;17.58;39.61;99165.19;5051858;28;20049;-68
2023/04/13 11:01:02;;;;;;;4.40;1.90;;;;;;;17.57;39.47;99158.94;5051686;28;20053;-69
2023/04/13 11:03:30;;;;;;;3.10;1.70;;;;;;;17.58;39.64;99159.78;5051641;28;20045;-69
2023/04/13 11:06:00;;;;;;;3.17;1.85;;;;;;;17.58;39.35;99159.78;5051196;28;20128;-68
2023/04/13 11:08:29;;;;;;;4.25;2.10;;;;;;;17.59;39.48;99156.94;5051581;28;20083;-67
2023/04/13 11:10:58;;;;;;;3.75;1.90;;;;;;;17.58;39.45;99155.25;5051623;28;20052;-68
2023/04/13 11:13:27;;;;;;;3.30;1.60;;;;;;;17.60;39.31;99152.38;5051568;28;20084;-68
2023/04/13 11:16:03;;;;;;;3.47;1.80;;;;;;;17.61;39.54;99165.69;5051687;28;20049;-68
2023/04/13 11:18:31;;;;;;;3.30;1.80;;;;;;;17.61;39.41;99156.75;5051479;28;20055;-68
2023/04/13 11:21:01;;;;;;;2.95;1.65;;;;;;;17.63;39.43;99152.88;5051730;28;20045;-69
2023/04/13 11:23:34;;;;;;;3.05;1.73;;;;;;;17.65;39.33;99155.41;5051586;28;20056;-67
2023/04/13 11:26:05;;;;;;;4.68;1.80;;;;;;;17.66;39.32;99152.56;5051420;28;20052;-68
2023/04/13 11:28:38;;;;;;;4.55;1.98;;;;;;;17.67;39.46;99154.25;5050884;28;20049;-69
2023/04/13 11:31:07;;;;;;;3.47;1.70;;;;;;;17.69;39.46;99156.78;5050927;28;20505;-68
2023/04/13 11:33:35;;;;;;;3.75;1.80;;;;;;;17.70;39.26;99153.97;5051023;28;20462;-68
2023/04/13 11:36:08;;;;;;;3.45;1.90;;;;;;;17.73;39.47;99148.22;5051214;28;20451;-68
2023/04/13 11:38:39;;;;;;;3.03;1.80;;;;;;;17.73;39.51;99140.13;5051232;28;20048;-69
2023/04/13 11:41:09;;;;;;;3.10;1.75;;;;;;;17.77;39.53;99145.22;5051161;28;20474;-68
2023/04/13 11:43:41;;;;;;;4.03;1.80;;;;;;;17.77;39.42;99139.81;5051089;28;20072;-68
2023/04/13 11:46:14;;;;;;;4.35;1.80;;;;;;;17.79;39.53;99135.09;5051191;28;20095;-68